Time;durP1;ratioP1;P1;durP2;ratioP2;P2;SDS_P1;SDS_P2;PMS_P1;PMS_P2;Temp;Humidity;BMP_temperature;BMP_pressure;BME280_temperature;BME280_humidity;BME280_pressure;Samples;Min_cycle;Max_cycle;Signal;HPM_P1;HPM_P2
2021/11/23 00:00:55;;;;;;;74.68;13.57;;;;;;;;;;5054131;28;20686;-66
2021/11/23 00:03:22;;;;;;;71.10;11.73;;;;;;;;;;5054127;28;20581;-67
2021/11/23 00:05:49;;;;;;;74.07;11.57;;;;;;;;;;5054083;28;20221;-66
2021/11/23 00:08:20;;;;;;;68.80;9.38;;;;;;;;;;5054257;28;20210;-66
2021/11/23 00:10:47;;;;;;;66.45;8.05;;;;;;;;;;5054004;28;20205;-65
2021/11/23 00:13:15;;;;;;;65.15;7.70;;;;;;;;;;5055988;28;20292;-66
2021/11/23 00:15:42;;;;;;;64.85;7.53;;;;;;;;;;5073243;28;20216;-66
2021/11/23 00:18:11;;;;;;;65.22;8.68;;;;;;;;;;5073798;28;20216;-66
2021/11/23 00:20:38;;;;;;;65.18;8.43;;;;;;;;;;5074137;28;20208;-66
2021/11/23 00:23:05;;;;;;;65.53;8.25;;;;;;;;;;5074088;28;20569;-65
2021/11/23 00:25:34;;;;;;;66.43;9.05;;;;;;;;;;5073444;28;20225;-66
2021/11/23 00:28:01;;;;;;;64.68;8.88;;;;;;;;;;5073684;28;20205;-65
2021/11/23 00:30:29;;;;;;;66.20;8.63;;;;;;;;;;5073539;28;20670;-67
2021/11/23 00:32:57;;;;;;;64.65;8.10;;;;;;;;;;5073802;28;20283;-66
2021/11/23 00:35:24;;;;;;;65.70;9.18;;;;;;;;;;5073518;28;20729;-66
2021/11/23 00:37:52;;;;;;;64.80;9.13;;;;;;;;;;5073653;28;20263;-66
2021/11/23 00:40:20;;;;;;;67.45;10.50;;;;;;;;;;5073538;28;20205;-67
2021/11/23 00:42:48;;;;;;;67.65;10.07;;;;;;;;;;5073415;28;20233;-66
2021/11/23 00:45:15;;;;;;;65.60;9.23;;;;;;;;;;5066320;28;20217;-66
2021/11/23 00:47:42;;;;;;;63.10;8.45;;;;;;;;;;5053304;28;20564;-66
2021/11/23 00:50:10;;;;;;;70.75;9.15;;;;;;;;;;5053420;28;20206;-67
2021/11/23 00:52:37;;;;;;;68.55;10.80;;;;;;;;;;5053641;28;20240;-66
2021/11/23 00:55:05;;;;;;;66.30;9.38;;;;;;;;;;5053216;28;20212;-67
2021/11/23 00:57:33;;;;;;;64.68;7.43;;;;;;;;;;5052833;28;20206;-66
2021/11/23 01:00:01;;;;;;;64.50;8.50;;;;;;;;;;5053390;28;20280;-67
2021/11/23 01:02:28;;;;;;;66.07;8.95;;;;;;;;;;5052957;28;20231;-66
2021/11/23 01:04:55;;;;;;;66.35;8.95;;;;;;;;;;5053014;28;20212;-66
2021/11/23 01:07:23;;;;;;;65.75;9.25;;;;;;;;;;5052752;28;20201;-66
2021/11/23 01:09:50;;;;;;;68.75;9.80;;;;;;;;;;5053052;28;20206;-66
2021/11/23 01:12:17;;;;;;;67.78;10.68;;;;;;;;;;5052624;28;20604;-66
2021/11/23 01:14:44;;;;;;;68.85;10.25;;;;;;;;;;5052861;28;20687;-67
2021/11/23 01:17:14;;;;;;;66.90;8.80;;;;;;;;;;5051140;28;20220;-66
2021/11/23 01:19:41;;;;;;;65.35;8.45;;;;;;;;;;5052717;28;20214;-66
2021/11/23 01:22:09;;;;;;;65.97;9.70;;;;;;;;;;5052673;28;20225;-66
2021/11/23 01:24:36;;;;;;;72.88;10.25;;;;;;;;;;5052560;28;20209;-66
2021/11/23 01:27:03;;;;;;;67.60;9.85;;;;;;;;;;5051908;28;20225;-66
2021/11/23 01:29:30;;;;;;;65.10;9.13;;;;;;;;;;5052811;28;20202;-66
2021/11/23 01:31:57;;;;;;;66.88;9.88;;;;;;;;;;5052468;28;20740;-65
2021/11/23 01:34:26;;;;;;;63.45;7.65;;;;;;;;;;5052632;28;20208;-67
2021/11/23 01:36:53;;;;;;;65.38;8.38;;;;;;;;;;5052302;28;20201;-66
2021/11/23 01:39:20;;;;;;;66.65;9.57;;;;;;;;;;5052294;28;20206;-66
2021/11/23 01:41:47;;;;;;;63.55;7.70;;;;;;;;;;5052238;28;20730;-66
2021/11/23 01:44:14;;;;;;;71.65;9.52;;;;;;;;;;5052372;28;20214;-66
2021/11/23 01:46:41;;;;;;;64.07;7.82;;;;;;;;;;5052050;28;20598;-66
2021/11/23 01:49:08;;;;;;;65.57;8.77;;;;;;;;;;5052344;28;20213;-66
2021/11/23 01:51:37;;;;;;;66.97;8.43;;;;;;;;;;5052177;28;20225;-66
2021/11/23 01:54:04;;;;;;;63.55;8.52;;;;;;;;;;5052320;28;20586;-65
2021/11/23 01:56:31;;;;;;;65.05;8.35;;;;;;;;;;5051999;28;20202;-66
2021/11/23 01:58:58;;;;;;;65.75;8.93;;;;;;;;;;5052068;28;20712;-66
2021/11/23 02:01:26;;;;;;;65.90;8.90;;;;;;;;;;5052180;28;20228;-66
2021/11/23 02:03:53;;;;;;;66.25;8.13;;;;;;;;;;5052001;28;20670;-66
2021/11/23 02:06:20;;;;;;;64.53;8.10;;;;;;;;;;5051918;28;20316;-66
2021/11/23 02:08:49;;;;;;;64.20;8.40;;;;;;;;;;5051771;28;20205;-66
2021/11/23 02:11:16;;;;;;;65.50;9.02;;;;;;;;;;5052051;28;20226;-66
2021/11/23 02:13:43;;;;;;;66.60;9.38;;;;;;;;;;5051923;28;20205;-66
2021/11/23 02:16:10;;;;;;;65.78;9.27;;;;;;;;;;5051455;28;20208;-65
2021/11/23 02:18:37;;;;;;;63.42;8.05;;;;;;;;;;5051781;28;20206;-66
2021/11/23 02:21:06;;;;;;;66.30;9.18;;;;;;;;;;5051887;28;20233;-66
2021/11/23 02:23:33;;;;;;;64.35;8.73;;;;;;;;;;5051804;28;20208;-66
2021/11/23 02:26:00;;;;;;;66.05;8.63;;;;;;;;;;5051398;28;20228;-67
2021/11/23 02:28:27;;;;;;;66.68;9.43;;;;;;;;;;5051685;28;20633;-66
2021/11/23 02:30:56;;;;;;;65.28;8.13;;;;;;;;;;5051565;28;20203;-67
2021/11/23 02:33:24;;;;;;;67.25;8.90;;;;;;;;;;5051432;28;20678;-66
2021/11/23 02:35:53;;;;;;;68.90;9.85;;;;;;;;;;5051152;28;20297;-66
2021/11/23 02:38:22;;;;;;;65.60;9.02;;;;;;;;;;5051318;28;20216;-67
2021/11/23 02:40:50;;;;;;;66.97;9.48;;;;;;;;;;5051373;28;20206;-66
2021/11/23 02:43:18;;;;;;;66.40;9.52;;;;;;;;;;5051602;28;20272;-66
2021/11/23 02:45:45;;;;;;;65.22;9.32;;;;;;;;;;5051035;28;20232;-66
2021/11/23 02:48:14;;;;;;;65.68;9.45;;;;;;;;;;5051367;28;20237;-66
2021/11/23 02:50:44;;;;;;;64.85;8.48;;;;;;;;;;5049704;28;20371;-66
2021/11/23 02:53:11;;;;;;;65.63;8.13;;;;;;;;;;5051402;28;20202;-66
2021/11/23 02:55:39;;;;;;;72.88;9.80;;;;;;;;;;5050851;28;20225;-66
2021/11/23 02:58:09;;;;;;;65.30;7.95;;;;;;;;;;5051412;28;20678;-66
2021/11/23 03:00:38;;;;;;;68.10;9.35;;;;;;;;;;5051540;28;20217;-66
2021/11/23 03:03:05;;;;;;;65.70;9.10;;;;;;;;;;5051328;28;20231;-66
2021/11/23 03:05:32;;;;;;;65.13;9.02;;;;;;;;;;5050866;28;20209;-66
2021/11/23 03:07:59;;;;;;;66.13;8.23;;;;;;;;;;5051172;28;20224;-66
2021/11/23 03:10:28;;;;;;;68.15;9.43;;;;;;;;;;5051482;28;20201;-66
2021/11/23 03:12:56;;;;;;;65.32;8.95;;;;;;;;;;5051138;28;20236;-66
2021/11/23 03:15:24;;;;;;;65.75;8.48;;;;;;;;;;5051083;28;20692;-65
2021/11/23 03:17:52;;;;;;;67.35;9.00;;;;;;;;;;5051246;28;20216;-66
2021/11/23 03:20:20;;;;;;;69.80;10.82;;;;;;;;;;5051183;28;20205;-66
2021/11/23 03:22:47;;;;;;;67.50;9.98;;;;;;;;;;5050916;28;20236;-66
2021/11/23 03:25:14;;;;;;;66.40;9.32;;;;;;;;;;5051194;28;20205;-65
2021/11/23 03:27:41;;;;;;;64.72;8.98;;;;;;;;;;5050837;28;20604;-66
2021/11/23 03:30:11;;;;;;;71.80;12.05;;;;;;;;;;5051006;28;20212;-66
2021/11/23 03:32:39;;;;;;;66.32;9.50;;;;;;;;;;5051230;28;20225;-66
2021/11/23 03:35:07;;;;;;;66.13;8.82;;;;;;;;;;5050829;28;20201;-65
2021/11/23 03:37:34;;;;;;;65.53;8.70;;;;;;;;;;5050942;28;20292;-67
2021/11/23 03:40:01;;;;;;;65.50;8.93;;;;;;;;;;5051064;28;20202;-65
2021/11/23 03:42:28;;;;;;;69.55;9.93;;;;;;;;;;5050897;28;20237;-66
2021/11/23 03:44:59;;;;;;;65.07;10.15;;;;;;;;;;5051002;28;20231;-67
2021/11/23 03:47:28;;;;;;;67.78;10.15;;;;;;;;;;5050582;28;20279;-66
2021/11/23 03:49:56;;;;;;;67.97;11.00;;;;;;;;;;5051809;28;20213;-66
2021/11/23 03:52:23;;;;;;;64.45;8.60;;;;;;;;;;5054646;28;20594;-66
2021/11/23 03:54:50;;;;;;;68.63;10.00;;;;;;;;;;5054503;28;20227;-66
2021/11/23 03:57:17;;;;;;;67.28;10.43;;;;;;;;;;5054249;28;20204;-65
2021/11/23 03:59:47;;;;;;;66.63;10.10;;;;;;;;;;5054346;28;20216;-66
2021/11/23 04:02:14;;;;;;;68.78;10.57;;;;;;;;;;5054144;28;20221;-66
2021/11/23 04:04:42;;;;;;;67.82;10.10;;;;;;;;;;5054435;28;20201;-66
2021/11/23 04:07:10;;;;;;;66.90;9.70;;;;;;;;;;5053917;28;20259;-66
2021/11/23 04:09:37;;;;;;;67.95;10.88;;;;;;;;;;5054147;28;20202;-66
2021/11/23 04:12:04;;;;;;;67.95;10.18;;;;;;;;;;5054152;28;20226;-66
2021/11/23 04:14:31;;;;;;;66.90;9.70;;;;;;;;;;5054012;28;20209;-66
2021/11/23 04:16:58;;;;;;;68.53;9.32;;;;;;;;;;5053690;28;20198;-65
2021/11/23 04:19:28;;;;;;;65.53;9.80;;;;;;;;;;5054245;28;20206;-66
2021/11/23 04:21:56;;;;;;;68.07;11.13;;;;;;;;;;5053896;28;20225;-66
2021/11/23 04:24:23;;;;;;;67.68;10.07;;;;;;;;;;5053995;28;20221;-66
2021/11/23 04:26:50;;;;;;;67.88;10.30;;;;;;;;;;5053370;28;20697;-66
2021/11/23 04:29:18;;;;;;;74.30;8.95;;;;;;;;;;5053756;28;20212;-66
2021/11/23 04:31:45;;;;;;;66.13;8.93;;;;;;;;;;5054059;28;20225;-66
2021/11/23 04:34:12;;;;;;;64.78;8.32;;;;;;;;;;5053748;28;20206;-66
2021/11/23 04:36:39;;;;;;;68.22;10.02;;;;;;;;;;5053365;28;20222;-66
2021/11/23 04:39:10;;;;;;;67.80;9.20;;;;;;;;;;5053649;28;20205;-65
2021/11/23 04:41:37;;;;;;;69.32;10.25;;;;;;;;;;5053481;28;20298;-65
2021/11/23 04:44:04;;;;;;;67.90;9.93;;;;;;;;;;5053829;28;20580;-66
2021/11/23 04:46:31;;;;;;;65.82;8.38;;;;;;;;;;5053018;28;20233;-66
2021/11/23 04:48:59;;;;;;;68.10;10.13;;;;;;;;;;5053565;28;20212;-66
2021/11/23 04:51:26;;;;;;;65.97;9.50;;;;;;;;;;5053318;28;20229;-66
2021/11/23 04:53:54;;;;;;;68.88;9.32;;;;;;;;;;5053368;28;20208;-66
2021/11/23 04:56:22;;;;;;;66.25;9.40;;;;;;;;;;5052892;28;20201;-66
2021/11/23 04:58:49;;;;;;;72.20;9.45;;;;;;;;;;5053523;28;20212;-66
2021/11/23 05:01:16;;;;;;;69.50;9.82;;;;;;;;;;5053141;28;20705;-66
2021/11/23 05:03:44;;;;;;;67.70;10.88;;;;;;;;;;5053238;28;20202;-65
2021/11/23 05:06:11;;;;;;;67.18;9.27;;;;;;;;;;5052846;28;20205;-66
2021/11/23 05:08:38;;;;;;;67.10;9.43;;;;;;;;;;5053087;28;20213;-65
2021/11/23 05:11:05;;;;;;;66.25;9.82;;;;;;;;;;5052875;28;20232;-66
2021/11/23 05:13:33;;;;;;;73.40;10.40;;;;;;;;;;5053142;28;20209;-66
2021/11/23 05:16:01;;;;;;;67.93;10.70;;;;;;;;;;5052719;28;20205;-66
2021/11/23 05:18:28;;;;;;;65.75;9.32;;;;;;;;;;5052870;28;20205;-65
2021/11/23 05:20:55;;;;;;;74.53;10.32;;;;;;;;;;5052715;28;20206;-66
2021/11/23 05:23:22;;;;;;;68.65;11.80;;;;;;;;;;5053148;28;20684;-66
2021/11/23 05:25:49;;;;;;;68.78;10.23;;;;;;;;;;5052652;28;20315;-66
2021/11/23 05:28:16;;;;;;;67.97;9.80;;;;;;;;;;5052773;28;20226;-66
2021/11/23 05:30:44;;;;;;;68.82;9.77;;;;;;;;;;5053082;28;20564;-66
2021/11/23 05:33:12;;;;;;;66.88;9.45;;;;;;;;;;5052623;28;20678;-66
2021/11/23 05:35:39;;;;;;;67.95;10.48;;;;;;;;;;5052226;28;20210;-66
2021/11/23 05:38:06;;;;;;;69.18;10.80;;;;;;;;;;5052370;28;20202;-65
2021/11/23 05:40:33;;;;;;;69.43;10.43;;;;;;;;;;5052640;28;20678;-66
2021/11/23 05:43:00;;;;;;;68.57;9.13;;;;;;;;;;5052409;28;20240;-65
2021/11/23 05:45:27;;;;;;;69.18;11.13;;;;;;;;;;5052122;28;20209;-65
2021/11/23 05:47:56;;;;;;;71.28;12.20;;;;;;;;;;5052203;28;20732;-65
2021/11/23 05:50:23;;;;;;;70.68;11.23;;;;;;;;;;5052229;28;20216;-65
2021/11/23 05:52:50;;;;;;;70.72;10.50;;;;;;;;;;5052119;28;20597;-66
2021/11/23 05:55:17;;;;;;;70.28;11.50;;;;;;;;;;5052353;28;20219;-65
2021/11/23 05:57:44;;;;;;;69.70;10.73;;;;;;;;;;5052207;28;20205;-66
2021/11/23 06:00:11;;;;;;;69.90;10.80;;;;;;;;;;5052224;28;20697;-66
2021/11/23 06:02:39;;;;;;;71.93;13.05;;;;;;;;;;5051873;28;20229;-65
2021/11/23 06:05:08;;;;;;;82.00;16.77;;;;;;;;;;5051790;28;20206;-65
2021/11/23 06:07:35;;;;;;;78.18;14.82;;;;;;;;;;5051892;28;20231;-65
2021/11/23 06:10:02;;;;;;;79.90;13.50;;;;;;;;;;5052174;28;20244;-66
2021/11/23 06:12:31;;;;;;;75.47;13.48;;;;;;;;;;5051407;28;20225;-65
2021/11/23 06:14:59;;;;;;;75.85;13.90;;;;;;;;;;5051913;28;20639;-66
2021/11/23 06:17:28;;;;;;;70.38;12.00;;;;;;;;;;5051536;28;20212;-66
2021/11/23 06:19:55;;;;;;;71.53;13.00;;;;;;;;;;5052041;28;20256;-65
2021/11/23 06:22:24;;;;;;;70.90;12.02;;;;;;;;;;5051952;28;20221;-66
2021/11/23 06:24:51;;;;;;;69.18;11.35;;;;;;;;;;5051747;28;20228;-65
2021/11/23 06:27:18;;;;;;;69.72;11.88;;;;;;;;;;5051372;28;20249;-66
2021/11/23 06:29:45;;;;;;;72.20;12.20;;;;;;;;;;5051658;28;20565;-66
2021/11/23 06:32:12;;;;;;;70.93;11.93;;;;;;;;;;5051520;28;20221;-66
2021/11/23 06:34:40;;;;;;;74.75;12.20;;;;;;;;;;5051426;28;20233;-66
2021/11/23 06:37:07;;;;;;;78.65;15.18;;;;;;;;;;5051414;28;20233;-66
2021/11/23 06:39:35;;;;;;;82.13;17.02;;;;;;;;;;5051781;28;20688;-65
2021/11/23 06:42:02;;;;;;;76.72;15.00;;;;;;;;;;5051227;28;20229;-66
2021/11/23 06:44:29;;;;;;;77.10;15.15;;;;;;;;;;5051523;28;20210;-66
2021/11/23 06:46:56;;;;;;;76.90;15.27;;;;;;;;;;5051015;28;20229;-66
2021/11/23 06:49:24;;;;;;;74.05;11.50;;;;;;;;;;5051640;28;20584;-66
2021/11/23 06:51:51;;;;;;;78.80;16.45;;;;;;;;;;5051425;28;20229;-66
2021/11/23 06:54:18;;;;;;;80.13;16.20;;;;;;;;;;5051545;28;20213;-66
2021/11/23 06:56:49;;;;;;;78.45;15.30;;;;;;;;;;5051064;28;20217;-66
2021/11/23 06:59:16;;;;;;;78.88;16.42;;;;;;;;;;5051346;28;20210;-65
2021/11/23 07:01:43;;;;;;;80.63;15.32;;;;;;;;;;5051208;28;20225;-66
2021/11/23 07:04:10;;;;;;;77.45;15.40;;;;;;;;;;5051523;28;20425;-64
2021/11/23 07:06:37;;;;;;;76.15;14.02;;;;;;;;;;5050860;28;20212;-66
2021/11/23 07:09:05;;;;;;;77.07;13.70;;;;;;;;;;5051199;28;20201;-65
2021/11/23 07:11:32;;;;;;;70.18;11.93;;;;;;;;;;5051145;28;20317;-66
2021/11/23 07:14:04;;;;;;;73.03;13.60;;;;;;;;;;5051140;28;20235;-66
2021/11/23 07:16:31;;;;;;;73.65;14.27;;;;;;;;;;5051034;28;20233;-66
2021/11/23 07:18:59;;;;;;;70.18;11.45;;;;;;;;;;5051128;28;20198;-66
2021/11/23 07:21:26;;;;;;;72.93;12.82;;;;;;;;;;5051125;28;20222;-66
2021/11/23 07:23:54;;;;;;;74.07;13.95;;;;;;;;;;5051071;28;20212;-66
2021/11/23 07:26:21;;;;;;;71.45;12.95;;;;;;;;;;5053992;28;20209;-66
2021/11/23 07:28:48;;;;;;;72.63;12.13;;;;;;;;;;5055225;28;20226;-66
2021/11/23 07:31:17;;;;;;;73.72;13.25;;;;;;;;;;5054951;28;20230;-66
2021/11/23 07:33:44;;;;;;;72.90;14.00;;;;;;;;;;5054940;28;20208;-66
2021/11/23 07:36:11;;;;;;;73.93;12.85;;;;;;;;;;5054418;28;20704;-65
2021/11/23 07:38:38;;;;;;;70.97;11.85;;;;;;;;;;5054804;28;20208;-66
2021/11/23 07:41:05;;;;;;;75.35;11.15;;;;;;;;;;5054539;28;20222;-65
2021/11/23 07:43:32;;;;;;;70.82;12.02;;;;;;;;;;5054617;28;20213;-66
2021/11/23 07:46:00;;;;;;;76.18;12.43;;;;;;;;;;5054363;28;20236;-65
2021/11/23 07:48:28;;;;;;;74.15;14.27;;;;;;;;;;5054496;28;20225;-66
2021/11/23 07:50:55;;;;;;;74.38;11.90;;;;;;;;;;5054584;28;20209;-66
2021/11/23 07:53:22;;;;;;;73.03;11.73;;;;;;;;;;5054439;28;20212;-66
2021/11/23 07:55:49;;;;;;;75.57;13.18;;;;;;;;;;5054289;28;20206;-66
2021/11/23 07:58:17;;;;;;;71.05;12.65;;;;;;;;;;5054592;28;20677;-66
2021/11/23 08:00:44;;;;;;;73.70;13.35;;;;;;;;;;5054370;28;20201;-66
2021/11/23 08:03:11;;;;;;;71.72;11.88;;;;;;;;;;5054285;28;20203;-66
2021/11/23 08:05:40;;;;;;;75.47;12.60;;;;;;;;;;5053951;28;20240;-66
2021/11/23 08:08:08;;;;;;;71.97;12.85;;;;;;;;;;5054170;28;20225;-66
2021/11/23 08:10:35;;;;;;;70.07;12.15;;;;;;;;;;5054366;28;20206;-66
2021/11/23 08:13:02;;;;;;;71.22;13.55;;;;;;;;;;5054283;28;20583;-65
2021/11/23 08:15:30;;;;;;;71.68;12.43;;;;;;;;;;5053846;28;20306;-66
2021/11/23 08:17:57;;;;;;;70.93;11.93;;;;;;;;;;5054024;28;20212;-65
2021/11/23 08:20:24;;;;;;;70.65;11.75;;;;;;;;;;5054009;28;20513;-66
2021/11/23 08:22:52;;;;;;;70.65;12.30;;;;;;;;;;5053852;28;20232;-66
2021/11/23 08:25:19;;;;;;;69.60;11.65;;;;;;;;;;5053911;28;20697;-66
2021/11/23 08:27:46;;;;;;;72.55;13.15;;;;;;;;;;5053783;28;20335;-65
2021/11/23 08:30:14;;;;;;;68.30;11.88;;;;;;;;;;5053825;28;20214;-66
2021/11/23 08:32:41;;;;;;;72.25;12.48;;;;;;;;;;5053692;28;20240;-66
2021/11/23 08:35:09;;;;;;;70.95;13.60;;;;;;;;;;5053203;28;20209;-66
2021/11/23 08:37:36;;;;;;;70.53;12.38;;;;;;;;;;5053142;28;20204;-66
2021/11/23 08:40:05;;;;;;;72.85;13.38;;;;;;;;;;5053608;28;20685;-66
2021/11/23 08:42:32;;;;;;;80.28;15.32;;;;;;;;;;5053554;28;20243;-66
2021/11/23 08:44:59;;;;;;;72.50;13.63;;;;;;;;;;5053534;28;20205;-65
2021/11/23 08:47:27;;;;;;;72.28;13.57;;;;;;;;;;5053132;28;20280;-66
2021/11/23 08:49:56;;;;;;;73.13;13.93;;;;;;;;;;5053433;28;20206;-67
2021/11/23 08:52:26;;;;;;;72.70;13.18;;;;;;;;;;5053321;28;20226;-66
2021/11/23 08:54:53;;;;;;;75.30;14.32;;;;;;;;;;5053548;28;20244;-66
2021/11/23 08:57:21;;;;;;;100.13;18.33;;;;;;;;;;5053014;28;20202;-66
2021/11/23 08:59:50;;;;;;;71.00;12.98;;;;;;;;;;5053271;28;20209;-67
2021/11/23 09:02:18;;;;;;;71.57;13.35;;;;;;;;;;5053066;28;20786;-66
2021/11/23 09:04:45;;;;;;;72.47;13.07;;;;;;;;;;5053364;28;20212;-66
2021/11/23 09:07:16;;;;;;;72.22;14.07;;;;;;;;;;5052954;28;20216;-66
2021/11/23 09:09:44;;;;;;;72.30;13.82;;;;;;;;;;5052939;28;20301;-66
2021/11/23 09:12:13;;;;;;;73.38;14.73;;;;;;;;;;5052425;28;20275;-66
2021/11/23 09:14:41;;;;;;;74.32;14.55;;;;;;;;;;5052804;28;20209;-66
2021/11/23 09:17:08;;;;;;;76.75;14.30;;;;;;;;;;5052812;28;20212;-67
2021/11/23 09:19:36;;;;;;;76.88;14.40;;;;;;;;;;5052996;28;20295;-66
2021/11/23 09:22:04;;;;;;;73.63;14.38;;;;;;;;;;5052820;28;20226;-66
2021/11/23 09:24:31;;;;;;;78.40;16.02;;;;;;;;;;5052905;28;20209;-66
2021/11/23 09:26:58;;;;;;;77.47;14.98;;;;;;;;;;5052377;28;20669;-67
2021/11/23 09:29:25;;;;;;;77.97;15.90;;;;;;;;;;5052577;28;20237;-67
2021/11/23 09:31:54;;;;;;;78.00;16.63;;;;;;;;;;5052751;28;20235;-67
2021/11/23 09:34:22;;;;;;;73.88;14.13;;;;;;;;;;5052707;28;20252;-67
2021/11/23 09:36:51;;;;;;;73.47;14.93;;;;;;;;;;5052305;28;20574;-67
2021/11/23 09:39:19;;;;;;;74.18;13.45;;;;;;;;;;5052851;28;20210;-67
2021/11/23 09:41:46;;;;;;;71.13;13.70;;;;;;;;;;5052262;28;20235;-67
2021/11/23 09:44:14;;;;;;;72.00;12.57;;;;;;;;;;5052369;28;20670;-66
2021/11/23 09:46:41;;;;;;;70.43;12.25;;;;;;;;;;5051900;28;20209;-66
2021/11/23 09:49:10;;;;;;;71.13;10.00;;;;;;;;;;5051685;28;20225;-67
2021/11/23 09:51:37;;;;;;;67.25;10.13;;;;;;;;;;5052159;28;20231;-66
2021/11/23 09:54:06;;;;;;;67.63;9.57;;;;;;;;;;5052255;28;20203;-67
2021/11/23 09:56:33;;;;;;;66.20;9.17;;;;;;;;;;5051828;28;20454;-67
2021/11/23 09:59:01;;;;;;;67.20;9.10;;;;;;;;;;5052306;28;20447;-68
2021/11/23 10:01:29;;;;;;;65.33;9.77;;;;;;;;;;5051973;28;20483;-65
2021/11/23 10:03:57;;;;;;;64.83;8.50;;;;;;;;;;5052152;28;20449;-66
2021/11/23 10:06:25;;;;;;;63.57;8.20;;;;;;;;;;5051650;28;20448;-67
2021/11/23 10:08:53;;;;;;;64.47;7.90;;;;;;;;;;5051799;28;20484;-67
2021/11/23 10:11:25;;;;;;;62.53;8.13;;;;;;;;;;5052021;28;20475;-67
2021/11/23 10:13:53;;;;;;;62.57;7.77;;;;;;;;;;5051754;28;20967;-67
2021/11/23 10:16:20;;;;;;;62.90;7.80;;;;;;;;;;5051688;28;20836;-66
2021/11/23 10:18:49;;;;;;;62.27;6.83;;;;;;;;;;5051831;28;20452;-68
2021/11/23 10:21:17;;;;;;;63.90;8.17;;;;;;;;;;5051577;28;20993;-65
2021/11/23 10:23:47;;;;;;;64.10;7.43;;;;;;;;;;5051979;28;20448;-67
2021/11/23 10:26:16;;;;;;;63.40;7.87;;;;;;;;;;5051806;28;20452;-66
2021/11/23 10:28:44;;;;;;;64.60;8.90;;;;;;;;;;5051527;28;21007;-67
2021/11/23 10:31:13;;;;;;;63.47;7.30;;;;;;;;;;5051627;28;20837;-65
2021/11/23 10:33:42;;;;;;;63.60;7.80;;;;;;;;;;5051593;28;20863;-64
2021/11/23 10:36:10;;;;;;;63.00;7.50;;;;;;;;;;5049415;28;20458;-66
2021/11/23 10:38:38;;;;;;;62.40;8.13;;;;;;;;;;5051731;28;20438;-65
2021/11/23 10:41:09;;;;;;;62.10;7.37;;;;;;;;;;5051443;28;20482;-67
2021/11/23 10:43:38;;;;;;;62.87;7.83;;;;;;;;;;5051436;28;20461;-64
2021/11/23 10:46:12;;;;;;;67.17;8.50;;;;;;;;;;5051199;28;20452;-64
2021/11/23 10:48:40;;;;;;;62.00;7.40;;;;;;;;;;5051387;28;20492;-68
2021/11/23 10:51:09;;;;;;;62.80;7.37;;;;;;;;;;5051536;28;20468;-64
2021/11/23 10:53:36;;;;;;;62.70;7.50;;;;;;;;;;5051337;28;20911;-65
2021/11/23 10:56:10;;;;;;;63.17;7.10;;;;;;;;;;5051173;28;20451;-65
2021/11/23 10:58:37;;;;;;;62.97;7.13;;;;;;;;;;5058739;28;20454;-65
2021/11/23 11:01:06;;;;;;;63.70;8.03;;;;;;;;;;5075665;28;20457;-65
2021/11/23 11:03:33;;;;;;;65.33;8.50;;;;;;;;;;5075626;28;20454;-65
2021/11/23 11:06:01;;;;;;;61.77;7.00;;;;;;;;;;5075288;28;20450;-66
2021/11/23 11:08:30;;;;;;;61.70;7.37;;;;;;;;;;5075110;28;20478;-66
2021/11/23 11:10:57;;;;;;;63.47;7.57;;;;;;;;;;5075311;28;20882;-65
2021/11/23 11:13:27;;;;;;;62.07;7.30;;;;;;;;;;5075190;28;20452;-65
2021/11/23 11:15:56;;;;;;;64.40;7.77;;;;;;;;;;5075148;28;20457;-65
2021/11/23 11:18:24;;;;;;;63.10;6.83;;;;;;;;;;5075177;28;20498;-64
2021/11/23 11:20:52;;;;;;;64.03;7.03;;;;;;;;;;5075062;28;20513;-65
2021/11/23 11:23:22;;;;;;;62.43;6.87;;;;;;;;;;5075171;28;20831;-65
2021/11/23 11:26:09;;;;;;;62.70;7.20;;;;;;;;;;5074539;28;20515;-64
2021/11/23 11:28:44;;;;;;;64.90;8.20;;;;;;;;;;5074896;28;21019;-65
2021/11/23 11:31:26;;;;;;;61.63;6.90;;;;;;;;;;5075082;28;20505;-65
2021/11/23 11:34:15;;;;;;;64.30;6.50;;;;;;;;;;5074905;28;20445;-66
2021/11/23 11:36:43;;;;;;;61.20;6.50;;;;;;;;;;5074716;28;20458;-65
2021/11/23 11:39:11;;;;;;;62.17;6.50;;;;;;;;;;5074941;28;20812;-65
2021/11/23 11:41:40;;;;;;;59.67;5.70;;;;;;;;;;5074610;28;20952;-65
2021/11/23 11:44:09;;;;;;;61.33;6.90;;;;;;;;;;5074943;28;20452;-65
2021/11/23 11:46:37;;;;;;;60.87;5.97;;;;;;;;;;5074290;28;20450;-65
2021/11/23 11:49:04;;;;;;;60.83;6.70;;;;;;;;;;5074477;28;20479;-65
2021/11/23 11:51:40;;;;;;;60.73;6.07;;;;;;;;;;5074477;28;20471;-66
2021/11/23 11:54:18;;;;;;;61.50;6.30;;;;;;;;;;5074754;28;20484;-66
2021/11/23 11:56:55;;;;;;;61.40;6.40;;;;;;;;;;5074080;28;20947;-65
2021/11/23 11:59:30;;;;;;;61.17;6.27;;;;;;;;;;5074331;28;20496;-64
2021/11/23 12:02:00;;;;;;;60.63;5.60;;;;;;;;;;5074314;28;20518;-65
2021/11/23 12:04:28;;;;;;;60.70;6.30;;;;;;;;;;5074492;28;20817;-65
2021/11/23 12:07:10;;;;;;;61.13;5.90;;;;;;;;;;5073874;28;20485;-65
2021/11/23 12:09:39;;;;;;;60.33;5.70;;;;;;;;;;5074184;28;20574;-65
2021/11/23 12:12:30;;;;;;;60.93;6.03;;;;;;;;;;5073565;28;20470;-65
2021/11/23 12:15:08;;;;;;;62.17;6.73;;;;;;;;;;5074243;28;20462;-64
2021/11/23 12:17:40;;;;;;;61.37;6.10;;;;;;;;;;5073879;28;21170;-66
2021/11/23 12:20:10;;;;;;;62.93;4.20;;;;;;;;;;5073997;28;21040;-66
2021/11/23 12:22:39;;;;;;;58.77;3.70;;;;;;;;;;5074210;28;20471;-64
2021/11/23 12:25:08;;;;;;;59.73;3.80;;;;;;;;;;5074049;28;20458;-65
2021/11/23 12:27:35;;;;;;;58.47;3.37;;;;;;;;;;5073690;28;20454;-66
2021/11/23 12:30:04;;;;;;;58.33;3.50;;;;;;;;;;5073916;28;20487;-65
2021/11/23 12:32:32;;;;;;;58.70;3.20;;;;;;;;;;5073637;28;20470;-65
2021/11/23 12:34:59;;;;;;;58.47;3.30;;;;;;;;;;5073740;28;20988;-65
2021/11/23 12:37:32;;;;;;;59.10;3.63;;;;;;;;;;5073616;28;20450;-64
2021/11/23 12:40:00;;;;;;;58.83;3.57;;;;;;;;;;5073702;28;20447;-65
2021/11/23 12:42:27;;;;;;;58.20;3.10;;;;;;;;;;5073532;28;20555;-65
2021/11/23 12:44:54;;;;;;;58.40;3.50;;;;;;;;;;5073647;28;20470;-64
2021/11/23 12:47:22;;;;;;;58.27;2.97;;;;;;;;;;5073636;28;20548;-64
2021/11/23 12:49:55;;;;;;;59.80;3.40;;;;;;;;;;5073653;28;20483;-65
2021/11/23 12:52:26;;;;;;;58.83;3.30;;;;;;;;;;5073570;28;20480;-65
2021/11/23 12:54:53;;;;;;;59.30;3.50;;;;;;;;;;5073368;28;20824;-65
2021/11/23 12:57:21;;;;;;;58.43;3.27;;;;;;;;;;5073073;28;20451;-64
2021/11/23 12:59:51;;;;;;;58.30;3.20;;;;;;;;;;5069609;28;20447;-65
2021/11/23 13:02:36;;;;;;;58.90;3.30;;;;;;;;;;5073124;28;20463;-65
2021/11/23 13:05:06;;;;;;;59.77;3.60;;;;;;;;;;5073202;28;20451;-65
2021/11/23 13:07:34;;;;;;;60.10;3.27;;;;;;;;;;5072957;28;20458;-65
2021/11/23 13:10:03;;;;;;;58.80;3.10;;;;;;;;;;5072622;28;20987;-64
2021/11/23 13:12:31;;;;;;;60.30;3.10;;;;;;;;;;5073174;28;20477;-65
2021/11/23 13:15:03;;;;;;;58.20;2.90;;;;;;;;;;5072995;28;20458;-66
2021/11/23 13:17:44;;;;;;;58.17;3.10;;;;;;;;;;5072784;28;20531;-66
2021/11/23 13:20:13;;;;;;;58.50;3.10;;;;;;;;;;5072867;28;20445;-66
2021/11/23 13:22:41;;;;;;;58.77;3.50;;;;;;;;;;5071491;28;20470;-65
2021/11/23 13:25:09;;;;;;;57.87;2.90;;;;;;;;;;5072491;28;20449;-65
2021/11/23 13:27:36;;;;;;;58.07;2.97;;;;;;;;;;5072526;28;20454;-66
2021/11/23 13:30:06;;;;;;;58.50;3.40;;;;;;;;;;5072762;28;20446;-65
2021/11/23 13:32:44;;;;;;;58.50;3.40;;;;;;;;;;5072812;28;20482;-65
2021/11/23 13:35:12;;;;;;;58.83;3.43;;;;;;;;;;5072212;28;20450;-66
2021/11/23 13:37:40;;;;;;;58.70;3.47;;;;;;;;;;5060329;28;20461;-66
2021/11/23 13:40:21;;;;;;;58.17;3.13;;;;;;;;;;5052502;28;20489;-65
2021/11/23 13:42:48;;;;;;;58.60;3.10;;;;;;;;;;5052278;28;20570;-66
2021/11/23 13:45:17;;;;;;;58.37;3.37;;;;;;;;;;5052239;28;20506;-66
2021/11/23 13:47:44;;;;;;;59.03;3.50;;;;;;;;;;5052144;28;20503;-66
2021/11/23 13:50:14;;;;;;;58.77;3.83;;;;;;;;;;5052485;28;20452;-66
2021/11/23 13:52:42;;;;;;;59.03;4.07;;;;;;;;;;5052038;28;20980;-66
2021/11/23 13:55:11;;;;;;;58.50;3.60;;;;;;;;;;5052140;28;20455;-66
2021/11/23 13:57:44;;;;;;;58.10;3.30;;;;;;;;;;5051943;28;20459;-66
2021/11/23 14:00:12;;;;;;;59.10;3.47;;;;;;;;;;5051885;28;21004;-65
2021/11/23 14:02:46;;;;;;;59.97;3.53;;;;;;;;;;5052172;28;20467;-65
2021/11/23 14:05:15;;;;;;;61.70;3.87;;;;;;;;;;5052033;28;20454;-65
2021/11/23 14:07:49;;;;;;;59.53;3.73;;;;;;;;;;5051495;28;20464;-65
2021/11/23 14:10:26;;;;;;;59.83;3.80;;;;;;;;;;5062066;28;20454;-65
2021/11/23 14:12:53;;;;;;;59.30;4.07;;;;;;;;;;5071771;28;20989;-65
2021/11/23 14:15:22;;;;;;;59.07;4.00;;;;;;;;;;5071804;28;20450;-65
2021/11/23 14:17:56;;;;;;;59.67;4.40;;;;;;;;;;5071930;28;20838;-65
2021/11/23 14:20:25;;;;;;;59.47;4.00;;;;;;;;;;5071689;28;20537;-66
2021/11/23 14:22:52;;;;;;;59.73;4.10;;;;;;;;;;5071611;28;20468;-66
2021/11/23 14:25:20;;;;;;;59.57;4.00;;;;;;;;;;5071445;28;20443;-65
2021/11/23 14:27:51;;;;;;;59.37;4.07;;;;;;;;;;5071565;28;20920;-66
2021/11/23 14:30:18;;;;;;;60.60;4.50;;;;;;;;;;5071521;28;20442;-66
2021/11/23 14:32:46;;;;;;;59.27;4.40;;;;;;;;;;5071556;28;20840;-65